sensor_id;sensor_type;location;lat;lon;timestamp;P1;durP1;ratioP1;P2;durP2;ratioP2
43793;SDS011;29414;44.798;20.366;2023-05-23T00:03:52;7.80;;;7.03;;
43793;SDS011;29414;44.798;20.366;2023-05-23T00:07:55;7.72;;;6.38;;
43793;SDS011;29414;44.798;20.366;2023-05-23T00:11:55;9.07;;;8.18;;
43793;SDS011;29414;44.798;20.366;2023-05-23T00:15:55;9.13;;;6.85;;
43793;SDS011;29414;44.798;20.366;2023-05-23T00:19:56;11.95;;;8.77;;
43793;SDS011;29414;44.798;20.366;2023-05-23T00:23:56;11.84;;;7.84;;
43793;SDS011;29414;44.798;20.366;2023-05-23T00:27:57;10.30;;;7.45;;
43793;SDS011;29414;44.798;20.366;2023-05-23T00:31:57;12.34;;;7.28;;
43793;SDS011;29414;44.798;20.366;2023-05-23T00:36:00;8.22;;;6.06;;
43793;SDS011;29414;44.798;20.366;2023-05-23T00:40:00;7.18;;;5.85;;
43793;SDS011;29414;44.798;20.366;2023-05-23T00:44:01;8.32;;;6.07;;
43793;SDS011;29414;44.798;20.366;2023-05-23T00:48:02;7.05;;;5.45;;
43793;SDS011;29414;44.798;20.366;2023-05-23T00:52:03;8.50;;;5.32;;
43793;SDS011;29414;44.798;20.366;2023-05-23T00:56:03;7.88;;;5.38;;
43793;SDS011;29414;44.798;20.366;2023-05-23T01:00:05;15.38;;;6.50;;
43793;SDS011;29414;44.798;20.366;2023-05-23T01:04:07;7.65;;;6.53;;
43793;SDS011;29414;44.798;20.366;2023-05-23T01:08:08;8.35;;;7.00;;
43793;SDS011;29414;44.798;20.366;2023-05-23T01:12:13;9.65;;;6.88;;
43793;SDS011;29414;44.798;20.366;2023-05-23T01:16:16;8.88;;;5.95;;
43793;SDS011;29414;44.798;20.366;2023-05-23T01:20:21;7.13;;;5.53;;
43793;SDS011;29414;44.798;20.366;2023-05-23T01:28:54;6.45;;;5.85;;
43793;SDS011;29414;44.798;20.366;2023-05-23T01:32:55;7.25;;;5.38;;
43793;SDS011;29414;44.798;20.366;2023-05-23T01:36:57;6.60;;;4.63;;
43793;SDS011;29414;44.798;20.366;2023-05-23T01:40:57;7.55;;;5.10;;
43793;SDS011;29414;44.798;20.366;2023-05-23T01:44:57;5.63;;;4.72;;
43793;SDS011;29414;44.798;20.366;2023-05-23T01:48:59;6.03;;;4.97;;
43793;SDS011;29414;44.798;20.366;2023-05-23T01:53:00;9.43;;;4.70;;
43793;SDS011;29414;44.798;20.366;2023-05-23T01:57:00;6.05;;;4.60;;
43793;SDS011;29414;44.798;20.366;2023-05-23T02:01:00;7.75;;;5.53;;
43793;SDS011;29414;44.798;20.366;2023-05-23T02:05:01;7.38;;;5.43;;
43793;SDS011;29414;44.798;20.366;2023-05-23T02:09:01;8.73;;;6.05;;
43793;SDS011;29414;44.798;20.366;2023-05-23T02:13:01;10.32;;;7.18;;
43793;SDS011;29414;44.798;20.366;2023-05-23T02:17:02;10.38;;;6.65;;
43793;SDS011;29414;44.798;20.366;2023-05-23T02:21:03;6.28;;;5.22;;
43793;SDS011;29414;44.798;20.366;2023-05-23T02:25:04;7.32;;;6.25;;
43793;SDS011;29414;44.798;20.366;2023-05-23T02:29:05;7.38;;;6.68;;
43793;SDS011;29414;44.798;20.366;2023-05-23T02:33:05;7.45;;;6.57;;
43793;SDS011;29414;44.798;20.366;2023-05-23T02:37:06;6.57;;;5.90;;
43793;SDS011;29414;44.798;20.366;2023-05-23T02:41:07;8.82;;;6.53;;
43793;SDS011;29414;44.798;20.366;2023-05-23T02:45:07;8.50;;;6.95;;
43793;SDS011;29414;44.798;20.366;2023-05-23T02:49:08;9.38;;;6.43;;
43793;SDS011;29414;44.798;20.366;2023-05-23T02:53:08;8.10;;;6.88;;
43793;SDS011;29414;44.798;20.366;2023-05-23T02:57:08;8.98;;;5.85;;
43793;SDS011;29414;44.798;20.366;2023-05-23T03:01:09;7.68;;;5.30;;
43793;SDS011;29414;44.798;20.366;2023-05-23T03:05:10;8.38;;;5.47;;
43793;SDS011;29414;44.798;20.366;2023-05-23T03:09:11;6.68;;;5.45;;
43793;SDS011;29414;44.798;20.366;2023-05-23T03:13:11;8.18;;;6.65;;
43793;SDS011;29414;44.798;20.366;2023-05-23T03:17:12;6.85;;;5.70;;
43793;SDS011;29414;44.798;20.366;2023-05-23T03:21:12;7.72;;;6.55;;
43793;SDS011;29414;44.798;20.366;2023-05-23T03:25:14;7.90;;;6.36;;
43793;SDS011;29414;44.798;20.366;2023-05-23T03:29:14;7.25;;;6.05;;
43793;SDS011;29414;44.798;20.366;2023-05-23T03:33:14;7.25;;;6.55;;
43793;SDS011;29414;44.798;20.366;2023-05-23T03:37:15;9.35;;;6.78;;
43793;SDS011;29414;44.798;20.366;2023-05-23T03:41:15;6.55;;;5.65;;
43793;SDS011;29414;44.798;20.366;2023-05-23T03:45:15;8.02;;;7.30;;
43793;SDS011;29414;44.798;20.366;2023-05-23T03:49:17;9.63;;;6.38;;
43793;SDS011;29414;44.798;20.366;2023-05-23T03:53:17;7.18;;;6.36;;
43793;SDS011;29414;44.798;20.366;2023-05-23T03:57:17;8.82;;;7.07;;
43793;SDS011;29414;44.798;20.366;2023-05-23T04:01:18;8.23;;;6.28;;
43793;SDS011;29414;44.798;20.366;2023-05-23T04:05:18;9.48;;;8.00;;
43793;SDS011;29414;44.798;20.366;2023-05-23T04:09:18;11.45;;;7.30;;
43793;SDS011;29414;44.798;20.366;2023-05-23T04:13:18;9.93;;;6.20;;
43793;SDS011;29414;44.798;20.366;2023-05-23T04:17:19;13.80;;;8.95;;
43793;SDS011;29414;44.798;20.366;2023-05-23T04:21:20;13.57;;;11.02;;
43793;SDS011;29414;44.798;20.366;2023-05-23T04:25:20;8.70;;;7.28;;
43793;SDS011;29414;44.798;20.366;2023-05-23T04:29:20;13.98;;;7.32;;
43793;SDS011;29414;44.798;20.366;2023-05-23T04:33:21;13.02;;;7.84;;
43793;SDS011;29414;44.798;20.366;2023-05-23T04:37:21;8.12;;;6.72;;
43793;SDS011;29414;44.798;20.366;2023-05-23T04:41:24;8.10;;;6.82;;
43793;SDS011;29414;44.798;20.366;2023-05-23T04:45:25;8.82;;;7.10;;
43793;SDS011;29414;44.798;20.366;2023-05-23T04:49:25;9.45;;;6.13;;
43793;SDS011;29414;44.798;20.366;2023-05-23T04:53:25;12.77;;;10.20;;
43793;SDS011;29414;44.798;20.366;2023-05-23T04:57:26;8.66;;;6.74;;
43793;SDS011;29414;44.798;20.366;2023-05-23T05:01:26;7.13;;;6.20;;
43793;SDS011;29414;44.798;20.366;2023-05-23T05:05:27;10.02;;;6.22;;
43793;SDS011;29414;44.798;20.366;2023-05-23T05:09:27;6.38;;;5.80;;
43793;SDS011;29414;44.798;20.366;2023-05-23T05:13:27;12.25;;;7.68;;
43793;SDS011;29414;44.798;20.366;2023-05-23T05:17:27;12.00;;;9.00;;
43793;SDS011;29414;44.798;20.366;2023-05-23T05:21:29;12.00;;;9.32;;
43793;SDS011;29414;44.798;20.366;2023-05-23T05:25:30;12.32;;;11.13;;
43793;SDS011;29414;44.798;20.366;2023-05-23T05:29:31;14.00;;;10.27;;
43793;SDS011;29414;44.798;20.366;2023-05-23T05:33:32;17.40;;;9.45;;
43793;SDS011;29414;44.798;20.366;2023-05-23T05:37:34;15.95;;;9.55;;
43793;SDS011;29414;44.798;20.366;2023-05-23T05:41:35;12.95;;;9.13;;
43793;SDS011;29414;44.798;20.366;2023-05-23T05:45:35;11.02;;;9.88;;
43793;SDS011;29414;44.798;20.366;2023-05-23T05:49:36;10.15;;;9.07;;
43793;SDS011;29414;44.798;20.366;2023-05-23T05:53:36;10.57;;;8.43;;
43793;SDS011;29414;44.798;20.366;2023-05-23T05:57:37;9.90;;;8.80;;
43793;SDS011;29414;44.798;20.366;2023-05-23T06:01:37;10.25;;;8.40;;
43793;SDS011;29414;44.798;20.366;2023-05-23T06:05:38;10.63;;;9.50;;
43793;SDS011;29414;44.798;20.366;2023-05-23T06:09:38;10.30;;;7.88;;
43793;SDS011;29414;44.798;20.366;2023-05-23T06:13:38;9.13;;;7.50;;
43793;SDS011;29414;44.798;20.366;2023-05-23T06:17:39;8.07;;;7.05;;
43793;SDS011;29414;44.798;20.366;2023-05-23T06:21:39;8.48;;;7.68;;
43793;SDS011;29414;44.798;20.366;2023-05-23T06:25:42;8.77;;;7.88;;
43793;SDS011;29414;44.798;20.366;2023-05-23T06:29:42;11.82;;;9.63;;
43793;SDS011;29414;44.798;20.366;2023-05-23T06:33:42;9.26;;;8.10;;
43793;SDS011;29414;44.798;20.366;2023-05-23T06:37:42;9.60;;;8.02;;
43793;SDS011;29414;44.798;20.366;2023-05-23T06:41:45;9.13;;;7.35;;
43793;SDS011;29414;44.798;20.366;2023-05-23T06:45:45;11.82;;;8.50;;
43793;SDS011;29414;44.798;20.366;2023-05-23T06:49:48;8.38;;;7.13;;
43793;SDS011;29414;44.798;20.366;2023-05-23T06:53:49;8.80;;;7.20;;
43793;SDS011;29414;44.798;20.366;2023-05-23T06:57:49;12.07;;;7.82;;
43793;SDS011;29414;44.798;20.366;2023-05-23T07:01:51;8.02;;;7.18;;
43793;SDS011;29414;44.798;20.366;2023-05-23T07:05:51;6.72;;;6.03;;
43793;SDS011;29414;44.798;20.366;2023-05-23T07:09:51;7.94;;;5.40;;
43793;SDS011;29414;44.798;20.366;2023-05-23T07:13:51;15.85;;;5.97;;
43793;SDS011;29414;44.798;20.366;2023-05-23T07:17:51;6.08;;;5.50;;
43793;SDS011;29414;44.798;20.366;2023-05-23T07:21:52;8.63;;;6.72;;
43793;SDS011;29414;44.798;20.366;2023-05-23T07:25:52;9.20;;;6.22;;
43793;SDS011;29414;44.798;20.366;2023-05-23T07:29:52;9.13;;;6.82;;
43793;SDS011;29414;44.798;20.366;2023-05-23T07:33:53;8.55;;;5.95;;
43793;SDS011;29414;44.798;20.366;2023-05-23T07:37:53;5.80;;;5.20;;
43793;SDS011;29414;44.798;20.366;2023-05-23T07:41:54;10.25;;;5.60;;
43793;SDS011;29414;44.798;20.366;2023-05-23T07:45:54;6.13;;;4.65;;
43793;SDS011;29414;44.798;20.366;2023-05-23T07:49:54;10.13;;;5.57;;
43793;SDS011;29414;44.798;20.366;2023-05-23T07:53:55;6.65;;;4.78;;
43793;SDS011;29414;44.798;20.366;2023-05-23T07:57:55;6.32;;;5.43;;
43793;SDS011;29414;44.798;20.366;2023-05-23T08:01:55;8.80;;;4.95;;
43793;SDS011;29414;44.798;20.366;2023-05-23T08:05:55;6.53;;;4.60;;
43793;SDS011;29414;44.798;20.366;2023-05-23T08:09:56;8.55;;;5.43;;
43793;SDS011;29414;44.798;20.366;2023-05-23T08:13:56;5.40;;;4.35;;
43793;SDS011;29414;44.798;20.366;2023-05-23T08:17:58;4.47;;;4.07;;
43793;SDS011;29414;44.798;20.366;2023-05-23T08:21:59;4.70;;;4.20;;
43793;SDS011;29414;44.798;20.366;2023-05-23T08:26:00;6.10;;;3.78;;
43793;SDS011;29414;44.798;20.366;2023-05-23T08:30:01;4.07;;;3.70;;
43793;SDS011;29414;44.798;20.366;2023-05-23T08:34:02;4.68;;;4.25;;
43793;SDS011;29414;44.798;20.366;2023-05-23T08:38:04;4.25;;;3.88;;
43793;SDS011;29414;44.798;20.366;2023-05-23T08:42:05;3.80;;;3.50;;
43793;SDS011;29414;44.798;20.366;2023-05-23T08:46:05;8.60;;;3.30;;
43793;SDS011;29414;44.798;20.366;2023-05-23T08:50:05;3.30;;;2.53;;
43793;SDS011;29414;44.798;20.366;2023-05-23T08:54:07;4.63;;;2.88;;
43793;SDS011;29414;44.798;20.366;2023-05-23T08:58:08;7.88;;;3.65;;
43793;SDS011;29414;44.798;20.366;2023-05-23T09:02:09;3.80;;;3.40;;
43793;SDS011;29414;44.798;20.366;2023-05-23T09:06:10;3.65;;;2.60;;
43793;SDS011;29414;44.798;20.366;2023-05-23T09:10:12;9.52;;;3.85;;
43793;SDS011;29414;44.798;20.366;2023-05-23T09:14:13;4.68;;;4.22;;
43793;SDS011;29414;44.798;20.366;2023-05-23T09:18:14;6.63;;;3.55;;
43793;SDS011;29414;44.798;20.366;2023-05-23T09:22:14;8.34;;;2.92;;
43793;SDS011;29414;44.798;20.366;2023-05-23T09:26:15;6.32;;;3.72;;
43793;SDS011;29414;44.798;20.366;2023-05-23T09:30:15;6.85;;;3.50;;
43793;SDS011;29414;44.798;20.366;2023-05-23T09:34:16;7.78;;;3.20;;
43793;SDS011;29414;44.798;20.366;2023-05-23T09:38:17;4.10;;;3.05;;
43793;SDS011;29414;44.798;20.366;2023-05-23T09:42:21;3.25;;;2.53;;
43793;SDS011;29414;44.798;20.366;2023-05-23T09:46:22;5.93;;;3.50;;
43793;SDS011;29414;44.798;20.366;2023-05-23T09:50:22;5.68;;;3.45;;
43793;SDS011;29414;44.798;20.366;2023-05-23T09:54:22;3.78;;;3.35;;
43793;SDS011;29414;44.798;20.366;2023-05-23T09:58:23;8.32;;;3.05;;
43793;SDS011;29414;44.798;20.366;2023-05-23T10:02:39;4.32;;;3.20;;
43793;SDS011;29414;44.798;20.366;2023-05-23T10:06:49;4.75;;;2.42;;
43793;SDS011;29414;44.798;20.366;2023-05-23T10:14:56;6.30;;;2.42;;
43793;SDS011;29414;44.798;20.366;2023-05-23T10:18:58;3.20;;;2.58;;
43793;SDS011;29414;44.798;20.366;2023-05-23T10:23:00;4.18;;;2.35;;
43793;SDS011;29414;44.798;20.366;2023-05-23T10:27:01;4.75;;;2.25;;
43793;SDS011;29414;44.798;20.366;2023-05-23T10:31:01;2.35;;;2.15;;
43793;SDS011;29414;44.798;20.366;2023-05-23T10:35:16;4.47;;;2.72;;
43793;SDS011;29414;44.798;20.366;2023-05-23T10:47:45;4.50;;;3.00;;
43793;SDS011;29414;44.798;20.366;2023-05-23T10:51:47;6.70;;;3.67;;
43793;SDS011;29414;44.798;20.366;2023-05-23T10:55:48;5.90;;;3.35;;
43793;SDS011;29414;44.798;20.366;2023-05-23T10:59:50;5.18;;;2.72;;
43793;SDS011;29414;44.798;20.366;2023-05-23T11:03:51;5.57;;;2.53;;
43793;SDS011;29414;44.798;20.366;2023-05-23T11:12:07;3.80;;;1.95;;
43793;SDS011;29414;44.798;20.366;2023-05-23T11:16:24;5.07;;;2.17;;
43793;SDS011;29414;44.798;20.366;2023-05-23T11:20:24;4.65;;;2.95;;
43793;SDS011;29414;44.798;20.366;2023-05-23T11:25:00;4.25;;;2.53;;
43793;SDS011;29414;44.798;20.366;2023-05-23T11:28:57;3.70;;;2.25;;
43793;SDS011;29414;44.798;20.366;2023-05-23T11:32:57;2.67;;;2.38;;
43793;SDS011;29414;44.798;20.366;2023-05-23T11:36:57;4.40;;;2.08;;
43793;SDS011;29414;44.798;20.366;2023-05-23T11:40:59;3.40;;;2.45;;
43793;SDS011;29414;44.798;20.366;2023-05-23T11:44:59;3.07;;;1.67;;
43793;SDS011;29414;44.798;20.366;2023-05-23T11:48:59;2.67;;;1.83;;
43793;SDS011;29414;44.798;20.366;2023-05-23T11:52:59;3.67;;;2.13;;
43793;SDS011;29414;44.798;20.366;2023-05-23T11:57:00;2.83;;;1.98;;
43793;SDS011;29414;44.798;20.366;2023-05-23T12:01:01;3.25;;;2.33;;
43793;SDS011;29414;44.798;20.366;2023-05-23T12:05:05;4.90;;;2.85;;
43793;SDS011;29414;44.798;20.366;2023-05-23T12:09:06;3.83;;;2.22;;
43793;SDS011;29414;44.798;20.366;2023-05-23T12:13:06;7.35;;;2.40;;
43793;SDS011;29414;44.798;20.366;2023-05-23T12:17:07;2.42;;;2.22;;
43793;SDS011;29414;44.798;20.366;2023-05-23T12:21:07;3.15;;;2.83;;
43793;SDS011;29414;44.798;20.366;2023-05-23T12:25:08;3.65;;;3.20;;
43793;SDS011;29414;44.798;20.366;2023-05-23T12:29:10;3.55;;;3.03;;
43793;SDS011;29414;44.798;20.366;2023-05-23T12:33:10;2.97;;;2.78;;
43793;SDS011;29414;44.798;20.366;2023-05-23T12:37:13;4.22;;;3.13;;
43793;SDS011;29414;44.798;20.366;2023-05-23T12:45:14;2.88;;;2.40;;
43793;SDS011;29414;44.798;20.366;2023-05-23T12:49:14;2.97;;;2.67;;
43793;SDS011;29414;44.798;20.366;2023-05-23T12:53:15;4.47;;;1.85;;
43793;SDS011;29414;44.798;20.366;2023-05-23T12:57:17;4.40;;;1.90;;
43793;SDS011;29414;44.798;20.366;2023-05-23T13:01:18;3.20;;;2.78;;
43793;SDS011;29414;44.798;20.366;2023-05-23T13:05:19;4.80;;;2.20;;
43793;SDS011;29414;44.798;20.366;2023-05-23T13:09:21;4.13;;;2.22;;
43793;SDS011;29414;44.798;20.366;2023-05-23T13:13:21;2.92;;;2.10;;
43793;SDS011;29414;44.798;20.366;2023-05-23T13:17:22;2.22;;;1.77;;
43793;SDS011;29414;44.798;20.366;2023-05-23T13:21:22;3.63;;;2.15;;
43793;SDS011;29414;44.798;20.366;2023-05-23T13:25:23;6.78;;;1.85;;
43793;SDS011;29414;44.798;20.366;2023-05-23T13:29:24;3.85;;;1.80;;
43793;SDS011;29414;44.798;20.366;2023-05-23T13:33:24;2.88;;;1.38;;
43793;SDS011;29414;44.798;20.366;2023-05-23T13:37:25;3.05;;;1.50;;
43793;SDS011;29414;44.798;20.366;2023-05-23T13:41:25;4.82;;;1.70;;
43793;SDS011;29414;44.798;20.366;2023-05-23T13:45:26;4.28;;;1.88;;
43793;SDS011;29414;44.798;20.366;2023-05-23T13:49:26;4.82;;;1.80;;
43793;SDS011;29414;44.798;20.366;2023-05-23T13:53:27;2.80;;;1.97;;
43793;SDS011;29414;44.798;20.366;2023-05-23T13:57:30;3.90;;;2.10;;
43793;SDS011;29414;44.798;20.366;2023-05-23T14:01:30;2.63;;;1.60;;
43793;SDS011;29414;44.798;20.366;2023-05-23T14:05:31;2.00;;;1.40;;
43793;SDS011;29414;44.798;20.366;2023-05-23T14:09:31;3.67;;;1.65;;
43793;SDS011;29414;44.798;20.366;2023-05-23T14:13:31;2.53;;;1.58;;
43793;SDS011;29414;44.798;20.366;2023-05-23T14:17:32;3.38;;;1.83;;
43793;SDS011;29414;44.798;20.366;2023-05-23T14:21:33;3.83;;;1.73;;
43793;SDS011;29414;44.798;20.366;2023-05-23T14:25:33;1.95;;;1.48;;
43793;SDS011;29414;44.798;20.366;2023-05-23T14:29:33;3.05;;;1.45;;
43793;SDS011;29414;44.798;20.366;2023-05-23T14:33:33;4.38;;;2.00;;
43793;SDS011;29414;44.798;20.366;2023-05-23T14:37:34;2.50;;;1.48;;
43793;SDS011;29414;44.798;20.366;2023-05-23T14:41:34;2.80;;;1.98;;
43793;SDS011;29414;44.798;20.366;2023-05-23T14:45:35;3.40;;;1.80;;
43793;SDS011;29414;44.798;20.366;2023-05-23T14:49:35;1.95;;;1.50;;
43793;SDS011;29414;44.798;20.366;2023-05-23T14:53:36;3.30;;;2.30;;
43793;SDS011;29414;44.798;20.366;2023-05-23T14:57:36;5.90;;;2.58;;
43793;SDS011;29414;44.798;20.366;2023-05-23T15:01:37;4.20;;;2.15;;
43793;SDS011;29414;44.798;20.366;2023-05-23T15:05:37;2.42;;;2.08;;
43793;SDS011;29414;44.798;20.366;2023-05-23T15:09:37;2.90;;;1.88;;
43793;SDS011;29414;44.798;20.366;2023-05-23T15:13:37;5.63;;;2.85;;
43793;SDS011;29414;44.798;20.366;2023-05-23T15:17:38;5.73;;;2.60;;
43793;SDS011;29414;44.798;20.366;2023-05-23T15:21:38;2.65;;;2.38;;
43793;SDS011;29414;44.798;20.366;2023-05-23T15:25:38;4.88;;;2.30;;
43793;SDS011;29414;44.798;20.366;2023-05-23T15:29:39;3.50;;;1.90;;
43793;SDS011;29414;44.798;20.366;2023-05-23T15:33:40;5.68;;;2.13;;
43793;SDS011;29414;44.798;20.366;2023-05-23T15:37:40;3.25;;;2.22;;
43793;SDS011;29414;44.798;20.366;2023-05-23T15:41:41;4.60;;;1.90;;
43793;SDS011;29414;44.798;20.366;2023-05-23T15:45:41;3.55;;;2.20;;
43793;SDS011;29414;44.798;20.366;2023-05-23T15:49:42;4.55;;;2.47;;
43793;SDS011;29414;44.798;20.366;2023-05-23T15:53:42;2.90;;;2.30;;
43793;SDS011;29414;44.798;20.366;2023-05-23T15:57:42;2.53;;;2.28;;
43793;SDS011;29414;44.798;20.366;2023-05-23T16:01:43;3.55;;;2.65;;
43793;SDS011;29414;44.798;20.366;2023-05-23T16:05:43;5.05;;;2.33;;
43793;SDS011;29414;44.798;20.366;2023-05-23T16:09:43;3.40;;;2.78;;
43793;SDS011;29414;44.798;20.366;2023-05-23T16:13:44;3.67;;;3.33;;
43793;SDS011;29414;44.798;20.366;2023-05-23T16:17:44;4.20;;;3.25;;
43793;SDS011;29414;44.798;20.366;2023-05-23T16:21:44;6.25;;;3.10;;
43793;SDS011;29414;44.798;20.366;2023-05-23T16:25:44;7.17;;;3.20;;
43793;SDS011;29414;44.798;20.366;2023-05-23T16:29:45;6.07;;;2.92;;
43793;SDS011;29414;44.798;20.366;2023-05-23T16:33:45;4.43;;;3.17;;
43793;SDS011;29414;44.798;20.366;2023-05-23T16:37:45;4.55;;;2.35;;
43793;SDS011;29414;44.798;20.366;2023-05-23T16:41:45;3.13;;;2.38;;
43793;SDS011;29414;44.798;20.366;2023-05-23T16:45:46;5.10;;;3.47;;
43793;SDS011;29414;44.798;20.366;2023-05-23T16:49:46;2.10;;;1.80;;
43793;SDS011;29414;44.798;20.366;2023-05-23T16:53:46;5.55;;;3.30;;
43793;SDS011;29414;44.798;20.366;2023-05-23T16:57:47;6.65;;;2.65;;
43793;SDS011;29414;44.798;20.366;2023-05-23T17:01:47;3.78;;;2.53;;
43793;SDS011;29414;44.798;20.366;2023-05-23T17:05:47;3.42;;;2.50;;
43793;SDS011;29414;44.798;20.366;2023-05-23T17:09:47;5.22;;;3.03;;
43793;SDS011;29414;44.798;20.366;2023-05-23T17:13:48;3.23;;;2.93;;
43793;SDS011;29414;44.798;20.366;2023-05-23T17:17:48;3.35;;;3.05;;
43793;SDS011;29414;44.798;20.366;2023-05-23T17:21:48;7.13;;;3.17;;
43793;SDS011;29414;44.798;20.366;2023-05-23T17:25:48;5.57;;;2.80;;
43793;SDS011;29414;44.798;20.366;2023-05-23T17:29:49;3.22;;;2.95;;
43793;SDS011;29414;44.798;20.366;2023-05-23T17:33:49;3.38;;;3.10;;
43793;SDS011;29414;44.798;20.366;2023-05-23T17:37:49;6.80;;;3.17;;
43793;SDS011;29414;44.798;20.366;2023-05-23T17:41:51;9.63;;;2.92;;
43793;SDS011;29414;44.798;20.366;2023-05-23T17:45:51;4.45;;;3.90;;
43793;SDS011;29414;44.798;20.366;2023-05-23T17:49:51;7.80;;;4.80;;
43793;SDS011;29414;44.798;20.366;2023-05-23T17:53:52;7.70;;;5.63;;
43793;SDS011;29414;44.798;20.366;2023-05-23T17:57:53;11.77;;;6.07;;
43793;SDS011;29414;44.798;20.366;2023-05-23T18:01:53;6.07;;;4.88;;
43793;SDS011;29414;44.798;20.366;2023-05-23T18:05:53;7.53;;;5.82;;
43793;SDS011;29414;44.798;20.366;2023-05-23T18:09:53;7.65;;;4.18;;
43793;SDS011;29414;44.798;20.366;2023-05-23T18:13:54;7.97;;;4.57;;
43793;SDS011;29414;44.798;20.366;2023-05-23T18:17:54;5.03;;;4.53;;
43793;SDS011;29414;44.798;20.366;2023-05-23T18:21:56;7.82;;;5.63;;
43793;SDS011;29414;44.798;20.366;2023-05-23T18:25:56;6.28;;;4.72;;
43793;SDS011;29414;44.798;20.366;2023-05-23T18:29:57;12.80;;;5.55;;
43793;SDS011;29414;44.798;20.366;2023-05-23T18:33:57;13.43;;;6.55;;
43793;SDS011;29414;44.798;20.366;2023-05-23T18:37:57;11.93;;;5.50;;
43793;SDS011;29414;44.798;20.366;2023-05-23T18:41:57;11.13;;;5.30;;
43793;SDS011;29414;44.798;20.366;2023-05-23T18:45:58;9.55;;;6.30;;
43793;SDS011;29414;44.798;20.366;2023-05-23T18:49:58;10.50;;;6.18;;
43793;SDS011;29414;44.798;20.366;2023-05-23T18:53:58;12.98;;;6.72;;
43793;SDS011;29414;44.798;20.366;2023-05-23T18:57:59;10.73;;;6.10;;
43793;SDS011;29414;44.798;20.366;2023-05-23T19:02:00;7.47;;;5.88;;
43793;SDS011;29414;44.798;20.366;2023-05-23T19:06:01;7.53;;;4.45;;
43793;SDS011;29414;44.798;20.366;2023-05-23T19:10:02;13.07;;;5.22;;
43793;SDS011;29414;44.798;20.366;2023-05-23T19:14:02;8.32;;;4.78;;
43793;SDS011;29414;44.798;20.366;2023-05-23T19:18:02;9.45;;;5.45;;
43793;SDS011;29414;44.798;20.366;2023-05-23T19:22:03;5.70;;;4.93;;
43793;SDS011;29414;44.798;20.366;2023-05-23T19:26:03;9.80;;;4.65;;
43793;SDS011;29414;44.798;20.366;2023-05-23T19:30:04;6.30;;;5.22;;
43793;SDS011;29414;44.798;20.366;2023-05-23T19:34:04;5.43;;;4.60;;
43793;SDS011;29414;44.798;20.366;2023-05-23T19:38:06;7.53;;;5.13;;
43793;SDS011;29414;44.798;20.366;2023-05-23T19:42:07;7.55;;;5.50;;
43793;SDS011;29414;44.798;20.366;2023-05-23T19:46:07;7.82;;;5.68;;
43793;SDS011;29414;44.798;20.366;2023-05-23T19:50:10;8.57;;;5.25;;
43793;SDS011;29414;44.798;20.366;2023-05-23T19:54:12;11.40;;;5.43;;
43793;SDS011;29414;44.798;20.366;2023-05-23T19:58:13;6.68;;;4.68;;
43793;SDS011;29414;44.798;20.366;2023-05-23T20:02:13;11.65;;;6.25;;
43793;SDS011;29414;44.798;20.366;2023-05-23T20:06:13;10.40;;;5.95;;
43793;SDS011;29414;44.798;20.366;2023-05-23T20:10:13;10.45;;;7.05;;
43793;SDS011;29414;44.798;20.366;2023-05-23T20:14:14;8.70;;;6.28;;
43793;SDS011;29414;44.798;20.366;2023-05-23T20:18:14;13.40;;;7.88;;
43793;SDS011;29414;44.798;20.366;2023-05-23T20:22:14;8.98;;;6.10;;
43793;SDS011;29414;44.798;20.366;2023-05-23T20:26:15;13.23;;;6.90;;
43793;SDS011;29414;44.798;20.366;2023-05-23T20:30:15;11.85;;;9.27;;
43793;SDS011;29414;44.798;20.366;2023-05-23T20:34:15;19.13;;;10.85;;
43793;SDS011;29414;44.798;20.366;2023-05-23T20:38:18;19.98;;;9.45;;
43793;SDS011;29414;44.798;20.366;2023-05-23T20:42:19;15.63;;;10.68;;
43793;SDS011;29414;44.798;20.366;2023-05-23T20:46:19;41.15;;;28.17;;
43793;SDS011;29414;44.798;20.366;2023-05-23T20:50:20;26.20;;;19.55;;
43793;SDS011;29414;44.798;20.366;2023-05-23T20:54:21;25.63;;;17.90;;
43793;SDS011;29414;44.798;20.366;2023-05-23T20:58:23;65.50;;;44.50;;
43793;SDS011;29414;44.798;20.366;2023-05-23T21:02:23;31.35;;;22.20;;
43793;SDS011;29414;44.798;20.366;2023-05-23T21:06:23;17.88;;;14.35;;
43793;SDS011;29414;44.798;20.366;2023-05-23T21:10:24;10.66;;;8.60;;
43793;SDS011;29414;44.798;20.366;2023-05-23T21:14:24;19.15;;;14.10;;
43793;SDS011;29414;44.798;20.366;2023-05-23T21:18:24;14.85;;;10.15;;
43793;SDS011;29414;44.798;20.366;2023-05-23T21:22:25;13.70;;;8.02;;
43793;SDS011;29414;44.798;20.366;2023-05-23T21:26:25;10.57;;;7.88;;
43793;SDS011;29414;44.798;20.366;2023-05-23T21:30:25;12.45;;;8.75;;
43793;SDS011;29414;44.798;20.366;2023-05-23T21:34:25;13.18;;;11.27;;
43793;SDS011;29414;44.798;20.366;2023-05-23T21:38:27;10.90;;;8.57;;
43793;SDS011;29414;44.798;20.366;2023-05-23T21:42:28;11.70;;;7.80;;
43793;SDS011;29414;44.798;20.366;2023-05-23T21:46:29;9.85;;;6.53;;
43793;SDS011;29414;44.798;20.366;2023-05-23T21:50:30;57.67;;;38.47;;
43793;SDS011;29414;44.798;20.366;2023-05-23T21:54:31;58.40;;;40.42;;
43793;SDS011;29414;44.798;20.366;2023-05-23T21:58:31;35.53;;;25.45;;
43793;SDS011;29414;44.798;20.366;2023-05-23T22:02:31;20.23;;;14.15;;
43793;SDS011;29414;44.798;20.366;2023-05-23T22:06:32;12.93;;;8.30;;
43793;SDS011;29414;44.798;20.366;2023-05-23T22:10:32;14.18;;;7.22;;
43793;SDS011;29414;44.798;20.366;2023-05-23T22:14:35;9.80;;;5.55;;
43793;SDS011;29414;44.798;20.366;2023-05-23T22:18:36;11.00;;;8.55;;
43793;SDS011;29414;44.798;20.366;2023-05-23T22:22:36;36.30;;;24.08;;
43793;SDS011;29414;44.798;20.366;2023-05-23T22:26:36;15.25;;;11.13;;
43793;SDS011;29414;44.798;20.366;2023-05-23T22:30:38;35.92;;;27.00;;
43793;SDS011;29414;44.798;20.366;2023-05-23T22:34:38;19.08;;;12.82;;
43793;SDS011;29414;44.798;20.366;2023-05-23T22:38:41;20.10;;;13.75;;
43793;SDS011;29414;44.798;20.366;2023-05-23T22:42:41;22.77;;;14.25;;
43793;SDS011;29414;44.798;20.366;2023-05-23T22:46:41;18.20;;;12.48;;
43793;SDS011;29414;44.798;20.366;2023-05-23T22:50:42;10.43;;;9.18;;
43793;SDS011;29414;44.798;20.366;2023-05-23T22:54:43;43.53;;;29.90;;
43793;SDS011;29414;44.798;20.366;2023-05-23T22:58:43;82.32;;;59.20;;
43793;SDS011;29414;44.798;20.366;2023-05-23T23:02:43;86.25;;;61.65;;
43793;SDS011;29414;44.798;20.366;2023-05-23T23:06:44;72.63;;;52.53;;
43793;SDS011;29414;44.798;20.366;2023-05-23T23:10:44;66.28;;;48.08;;
43793;SDS011;29414;44.798;20.366;2023-05-23T23:14:44;31.80;;;25.17;;
43793;SDS011;29414;44.798;20.366;2023-05-23T23:18:45;41.70;;;29.80;;
43793;SDS011;29414;44.798;20.366;2023-05-23T23:22:46;40.08;;;27.33;;
43793;SDS011;29414;44.798;20.366;2023-05-23T23:26:46;28.42;;;16.55;;
43793;SDS011;29414;44.798;20.366;2023-05-23T23:30:46;24.08;;;17.68;;
43793;SDS011;29414;44.798;20.366;2023-05-23T23:34:46;22.85;;;15.90;;
43793;SDS011;29414;44.798;20.366;2023-05-23T23:38:47;7.80;;;6.80;;
43793;SDS011;29414;44.798;20.366;2023-05-23T23:42:47;10.35;;;6.18;;
43793;SDS011;29414;44.798;20.366;2023-05-23T23:46:47;9.95;;;8.05;;
43793;SDS011;29414;44.798;20.366;2023-05-23T23:50:47;11.84;;;8.24;;
43793;SDS011;29414;44.798;20.366;2023-05-23T23:54:48;11.43;;;8.63;;
43793;SDS011;29414;44.798;20.366;2023-05-23T23:58:48;7.70;;;5.70;;
